Time;durP1;ratioP1;P1;durP2;ratioP2;P2;SDS_P1;SDS_P2;PMS_P1;PMS_P2;Temp;Humidity;BMP_temperature;BMP_pressure;BME280_temperature;BME280_humidity;BME280_pressure;Samples;Min_cycle;Max_cycle;Signal;HPM_P1;HPM_P2
2022/09/14 03:34:19;;;;;;;;;;;;;;;;;;;;;
2022/09/14 03:51:53;;;;;;;8.00;7.80;;;17.30;99.90;;;;;;4928284;28;20230;-88
2022/09/14 03:57:41;;;;;;;7.90;7.70;;;17.30;99.90;;;;;;4920923;28;20230;-89
2022/09/14 04:00:13;;;;;;;8.20;8.00;;;17.30;99.90;;;;;;4959649;28;20230;-89
2022/09/14 04:03:09;;;;;;;7.97;7.78;;;17.30;99.90;;;;;;4959970;28;20237;-88
2022/09/14 04:06:20;;;;;;;7.97;7.78;;;17.30;99.90;;;;;;4959065;28;20269;-88
2022/09/14 04:09:01;;;;;;;8.00;7.80;;;17.30;99.90;;;;;;5025462;28;20274;-88
2022/09/14 04:11:39;;;;;;;8.32;8.13;;;17.20;99.90;;;;;;5040406;28;20223;-88
2022/09/14 04:16:55;;;;;;;8.00;7.80;;;17.20;99.90;;;;;;5050349;28;20211;-88
2022/09/14 04:19:22;;;;;;;8.20;8.00;;;17.20;99.90;;;;;;5057798;28;20219;-89
2022/09/14 04:21:53;;;;;;;7.90;7.70;;;17.10;99.90;;;;;;5053782;28;20293;-88
2022/09/14 04:24:31;;;;;;;8.00;7.80;;;17.10;99.90;;;;;;5059128;28;20238;-89
2022/09/14 04:27:10;;;;;;;8.00;7.80;;;17.10;99.90;;;;;;5059426;28;20241;-88
2022/09/14 04:29:41;;;;;;;8.00;7.80;;;17.10;99.90;;;;;;5046657;28;20235;-87
2022/09/14 04:34:59;;;;;;;7.80;7.60;;;17.10;99.90;;;;;;5040884;28;20224;-87
2022/09/14 04:37:33;;;;;;;7.80;7.60;;;17.20;99.90;;;;;;5041029;28;20242;-88
2022/09/14 04:40:04;;;;;;;8.05;7.85;;;17.20;99.90;;;;;;5040460;28;20725;-87
2022/09/14 04:42:44;;;;;;;8.20;8.00;;;17.20;99.90;;;;;;5040938;28;20271;-88
2022/09/14 04:45:13;;;;;;;7.85;7.65;;;17.20;99.90;;;;;;5040527;28;20243;-88
2022/09/14 04:47:43;;;;;;;8.40;8.20;;;17.20;99.90;;;;;;5040644;28;20239;-87
2022/09/14 04:50:21;;;;;;;8.00;7.80;;;17.20;99.90;;;;;;5041075;28;20312;-87
2022/09/14 04:52:51;;;;;;;8.38;8.18;;;17.00;99.90;;;;;;5039716;28;20231;-86
2022/09/14 04:55:27;;;;;;;8.70;8.50;;;17.00;99.90;;;;;;5040034;28;20231;-87
2022/09/14 04:58:05;;;;;;;8.80;8.60;;;16.90;99.90;;;;;;5040194;28;20243;-87
2022/09/14 05:00:36;;;;;;;9.10;8.80;;;16.90;99.90;;;;;;5039932;28;20242;-87
2022/09/14 05:03:05;;;;;;;9.00;8.70;;;16.90;99.90;;;;;;5039923;28;20216;-86
2022/09/14 05:05:41;;;;;;;8.90;8.68;;;16.90;99.90;;;;;;5039849;28;20252;-87
2022/09/14 05:11:00;;;;;;;9.50;9.20;;;16.90;99.90;;;;;;5038817;28;20323;-87
2022/09/14 05:13:33;;;;;;;9.35;9.05;;;16.90;99.90;;;;;;5039806;28;20224;-87
2022/09/14 05:16:11;;;;;;;9.70;9.40;;;16.90;99.90;;;;;;5039536;28;20259;-87
2022/09/14 05:18:38;;;;;;;9.60;9.30;;;16.90;99.90;;;;;;5039426;28;20743;-86
2022/09/14 05:21:09;;;;;;;9.65;9.35;;;16.80;99.90;;;;;;5038629;28;20246;-87
2022/09/14 05:23:37;;;;;;;9.40;9.10;;;16.80;99.90;;;;;;5039446;28;20255;-87
2022/09/14 05:26:14;;;;;;;9.05;8.75;;;16.80;99.90;;;;;;5038571;28;20247;-86
2022/09/14 05:28:42;;;;;;;9.20;8.90;;;16.80;99.90;;;;;;5090027;22;20241;-83
2022/09/14 05:31:22;;;;;;;9.13;8.82;;;16.80;99.90;;;;;;5100549;28;20608;-83
2022/09/14 05:33:50;;;;;;;9.05;8.75;;;16.80;99.90;;;;;;5096922;28;20234;-83
2022/09/14 05:36:19;;;;;;;9.00;8.70;;;16.80;99.90;;;;;;5085506;28;20229;-81
2022/09/14 05:38:49;;;;;;;8.70;8.50;;;16.80;99.90;;;;;;5075553;28;20266;-80
2022/09/14 05:41:19;;;;;;;9.10;8.80;;;16.80;99.90;;;;;;5060795;28;20258;-81
2022/09/14 05:43:50;;;;;;;8.90;8.60;;;16.80;99.90;;;;;;5060537;28;20235;-81
2022/09/14 05:46:20;;;;;;;8.90;8.60;;;16.80;99.90;;;;;;5072985;28;20229;-83
2022/09/14 05:48:50;;;;;;;8.70;8.50;;;16.80;99.90;;;;;;5064679;28;20269;-83
2022/09/14 05:51:22;;;;;;;8.52;8.32;;;16.80;99.90;;;;;;5060465;28;20338;-83
2022/09/14 05:53:55;;;;;;;8.10;7.90;;;16.80;99.90;;;;;;5060100;28;20238;-83
2022/09/14 05:56:25;;;;;;;8.38;8.18;;;16.80;99.90;;;;;;5059828;28;20250;-83
2022/09/14 05:58:57;;;;;;;8.40;8.20;;;16.80;99.90;;;;;;5059980;28;20237;-83
2022/09/14 06:01:31;;;;;;;8.38;8.18;;;16.80;99.90;;;;;;5060335;28;20223;-83
2022/09/14 06:04:01;;;;;;;8.57;8.38;;;16.80;99.90;;;;;;5061958;28;20235;-83
2022/09/14 06:06:30;;;;;;;9.00;8.70;;;16.80;99.90;;;;;;5070507;28;20269;-82
2022/09/14 06:08:59;;;;;;;8.45;8.25;;;16.70;99.90;;;;;;5063855;28;20329;-83
2022/09/14 06:11:29;;;;;;;8.90;8.65;;;16.70;99.90;;;;;;5084037;28;20454;-84
2022/09/14 06:14:02;;;;;;;8.75;8.52;;;16.70;99.90;;;;;;5078616;28;20226;-85
2022/09/14 06:16:30;;;;;;;9.07;8.77;;;16.70;99.90;;;;;;5079513;28;20265;-85
2022/09/14 06:18:59;;;;;;;8.70;8.50;;;16.70;99.90;;;;;;5081993;28;20292;-84
2022/09/14 06:21:31;;;;;;;8.73;8.52;;;16.70;99.90;;;;;;5084746;28;20722;-85
2022/09/14 06:23:59;;;;;;;9.00;8.70;;;16.60;99.90;;;;;;5083517;28;20210;-85
2022/09/14 06:26:27;;;;;;;8.80;8.60;;;16.60;99.90;;;;;;5082602;28;20233;-85
2022/09/14 06:28:55;;;;;;;8.57;8.38;;;16.60;99.90;;;;;;5083302;28;20238;-86
2022/09/14 06:31:27;;;;;;;8.43;8.23;;;16.60;99.90;;;;;;5091903;28;20239;-83
2022/09/14 06:33:55;;;;;;;8.70;8.50;;;16.60;99.90;;;;;;5069003;28;20380;-84
2022/09/14 06:36:24;;;;;;;8.60;8.40;;;16.60;99.90;;;;;;5069014;28;20308;-83
2022/09/14 06:38:54;;;;;;;8.95;8.65;;;16.60;99.90;;;;;;5076407;28;20265;-84
2022/09/14 06:41:25;;;;;;;9.00;8.70;;;16.60;99.90;;;;;;5076296;28;20287;-85
2022/09/14 06:43:55;;;;;;;8.85;8.55;;;16.60;99.90;;;;;;5082970;28;20214;-85
2022/09/14 06:46:32;;;;;;;8.80;8.55;;;16.60;99.90;;;;;;5082716;28;20234;-85
2022/09/14 06:49:03;;;;;;;8.85;8.55;;;16.60;99.90;;;;;;5083820;28;20294;-85
2022/09/14 06:51:33;;;;;;;9.10;8.80;;;16.60;99.90;;;;;;5083835;28;20226;-84
2022/09/14 06:54:02;;;;;;;9.00;8.70;;;16.50;99.90;;;;;;5084948;28;20297;-84
2022/09/14 06:56:38;;;;;;;8.60;8.40;;;16.50;99.90;;;;;;5084707;28;20237;-83
2022/09/14 06:59:07;;;;;;;8.57;8.38;;;16.50;99.90;;;;;;5085235;28;20238;-85
2022/09/14 07:01:46;;;;;;;8.55;8.35;;;16.60;99.90;;;;;;5082730;28;20320;-84
2022/09/14 07:04:16;;;;;;;8.90;8.60;;;16.60;99.90;;;;;;5068392;28;20254;-84
2022/09/14 07:06:46;;;;;;;8.82;8.52;;;16.60;99.90;;;;;;5089117;28;20260;-85
2022/09/14 07:09:14;;;;;;;9.18;8.88;;;16.60;99.90;;;;;;5097575;28;20238;-84
2022/09/14 07:11:44;;;;;;;9.07;8.77;;;16.60;99.90;;;;;;5084621;28;20292;-84
2022/09/14 07:14:13;;;;;;;9.20;8.90;;;16.60;99.90;;;;;;5084405;28;20249;-84
2022/09/14 07:16:45;;;;;;;9.00;8.70;;;16.70;99.90;;;;;;5086438;28;20238;-84
2022/09/14 07:19:15;;;;;;;9.20;8.90;;;16.70;99.90;;;;;;5085310;28;20241;-85
2022/09/14 07:21:43;;;;;;;9.27;8.98;;;16.70;99.90;;;;;;5070129;28;20258;-84
2022/09/14 07:24:13;;;;;;;9.32;9.02;;;16.70;99.90;;;;;;5083022;28;20222;-84
2022/09/14 07:26:43;;;;;;;9.10;8.80;;;16.80;99.90;;;;;;5072416;28;20249;-82
2022/09/14 07:29:13;;;;;;;9.30;9.00;;;16.70;99.90;;;;;;5079902;28;20328;-83
2022/09/14 07:31:50;;;;;;;9.23;8.93;;;16.70;99.90;;;;;;5080807;28;20226;-82
2022/09/14 07:34:18;;;;;;;9.27;8.98;;;16.80;99.90;;;;;;5065187;28;20227;-83
2022/09/14 07:36:47;;;;;;;9.20;8.90;;;16.70;99.90;;;;;;5075864;28;20312;-83
2022/09/14 07:39:18;;;;;;;9.18;8.88;;;16.80;99.90;;;;;;5065441;28;20258;-83
2022/09/14 07:41:46;;;;;;;9.57;9.27;;;16.70;99.90;;;;;;5064462;28;20250;-82
2022/09/14 07:44:16;;;;;;;9.48;9.18;;;16.80;99.90;;;;;;5065705;28;20261;-83
2022/09/14 07:46:48;;;;;;;9.00;8.70;;;16.80;99.90;;;;;;5065452;28;20381;-84
2022/09/14 07:49:17;;;;;;;8.93;8.63;;;16.80;99.90;;;;;;5062935;28;20262;-84
2022/09/14 07:51:44;;;;;;;8.85;8.57;;;16.80;99.90;;;;;;5063337;28;20231;-84
2022/09/14 07:54:15;;;;;;;9.10;8.80;;;16.90;99.90;;;;;;5063666;28;20325;-83
2022/09/14 07:56:44;;;;;;;8.48;8.27;;;17.00;99.90;;;;;;5063084;28;20251;-84
2022/09/14 07:59:13;;;;;;;8.98;8.68;;;17.10;99.90;;;;;;5064396;28;20231;-84
2022/09/14 08:01:42;;;;;;;9.02;8.73;;;17.10;99.90;;;;;;5062653;28;20273;-84
2022/09/14 08:04:13;;;;;;;9.13;8.82;;;17.10;99.90;;;;;;5064055;28;20273;-83
2022/09/14 08:06:41;;;;;;;9.05;8.75;;;17.20;99.90;;;;;;5066200;28;20317;-83
2022/09/14 08:09:10;;;;;;;8.70;8.50;;;17.30;99.90;;;;;;5063493;28;20258;-84
2022/09/14 08:11:39;;;;;;;9.20;8.90;;;17.30;99.90;;;;;;5063294;28;20287;-83
2022/09/14 08:14:10;;;;;;;8.80;8.52;;;17.40;99.90;;;;;;5073634;28;20231;-83
2022/09/14 08:16:39;;;;;;;8.70;8.50;;;17.40;99.90;;;;;;5079528;28;20226;-84
2022/09/14 08:19:19;;;;;;;8.98;8.68;;;17.50;99.90;;;;;;5070027;28;20288;-85
2022/09/14 08:21:47;;;;;;;8.93;8.63;;;17.50;99.90;;;;;;5085712;28;20709;-84
2022/09/14 08:24:17;;;;;;;8.93;8.63;;;17.50;99.90;;;;;;5084578;28;20226;-84
2022/09/14 08:26:45;;;;;;;9.07;8.77;;;17.60;99.90;;;;;;5091562;28;20234;-83
2022/09/14 08:29:15;;;;;;;9.07;8.77;;;17.70;99.90;;;;;;5097167;28;20237;-83
2022/09/14 08:31:44;;;;;;;9.15;8.85;;;17.70;99.90;;;;;;5096929;28;20237;-84
2022/09/14 08:34:16;;;;;;;8.77;8.55;;;17.80;99.90;;;;;;5089427;28;20230;-84
2022/09/14 08:36:46;;;;;;;8.80;8.60;;;17.90;99.90;;;;;;5093563;28;20224;-84
2022/09/14 08:39:16;;;;;;;8.60;8.40;;;18.00;99.90;;;;;;5083758;28;20264;-83
2022/09/14 08:41:52;;;;;;;9.18;8.88;;;18.10;99.90;;;;;;5083402;28;20257;-84
2022/09/14 08:44:30;;;;;;;9.10;8.80;;;18.20;99.90;;;;;;5081538;28;20273;-85
2022/09/14 08:49:56;;;;;;;8.70;8.50;;;18.30;99.90;;;;;;5081840;28;20312;-82
2022/09/14 08:52:35;;;;;;;8.93;8.63;;;18.40;99.90;;;;;;5082752;28;20268;-83
2022/09/14 08:55:21;;;;;;;8.88;8.57;;;18.40;99.90;;;;;;5081848;28;20329;-84
2022/09/14 08:57:59;;;;;;;8.90;8.60;;;18.40;99.90;;;;;;5081956;28;20309;-83
2022/09/14 09:00:38;;;;;;;8.50;8.30;;;18.50;99.90;;;;;;5082273;28;20225;-84
2022/09/14 09:04:09;;;;;;;8.70;8.50;;;18.50;99.90;;;;;;5071625;28;20314;-84
2022/09/14 09:06:55;;;;;;;8.70;8.50;;;18.60;99.90;;;;;;5017941;28;20216;-85
2022/09/14 09:09:34;;;;;;;8.70;8.50;;;18.60;99.90;;;;;;5017350;28;20236;-85
2022/09/14 09:12:02;;;;;;;8.48;8.27;;;18.70;99.90;;;;;;5050282;28;20226;-84
2022/09/14 09:14:35;;;;;;;8.50;8.30;;;18.70;99.90;;;;;;5060664;28;20257;-84
2022/09/14 09:17:12;;;;;;;8.07;7.88;;;18.80;99.90;;;;;;5061250;28;20227;-84
2022/09/14 09:20:00;;;;;;;7.78;7.57;;;18.80;99.90;;;;;;5063378;28;20238;-85
2022/09/14 09:23:11;;;;;;;8.10;7.90;;;18.90;99.90;;;;;;5061220;28;20227;-84
2022/09/14 09:26:01;;;;;;;8.70;8.50;;;18.90;99.90;;;;;;5058916;28;20235;-85
2022/09/14 09:28:30;;;;;;;8.55;8.35;;;19.00;99.90;;;;;;5059844;28;20241;-88
2022/09/14 09:31:05;;;;;;;8.95;8.65;;;19.00;99.90;;;;;;5062754;28;20231;-84
2022/09/14 09:33:35;;;;;;;9.77;9.48;;;19.00;99.90;;;;;;5073062;28;20215;-84
2022/09/14 09:36:04;;;;;;;9.80;9.50;;;19.00;99.90;;;;;;5077198;28;20270;-84
2022/09/14 09:38:35;;;;;;;9.60;9.30;;;18.90;99.90;;;;;;5078958;28;20254;-85
2022/09/14 09:41:38;;;;;;;9.57;9.27;;;18.90;99.90;;;;;;5082362;28;20222;-83
2022/09/14 09:44:09;;;;;;;9.30;9.00;;;18.90;99.90;;;;;;5082766;28;20253;-84
2022/09/14 09:46:48;;;;;;;9.20;8.90;;;19.00;99.90;;;;;;5081199;28;20229;-85
2022/09/14 09:49:24;;;;;;;9.45;9.15;;;18.90;99.90;;;;;;5074403;28;20222;-84
2022/09/14 09:51:54;;;;;;;9.60;9.30;;;18.90;99.90;;;;;;5078386;28;20226;-85
2022/09/14 09:54:33;;;;;;;9.38;9.07;;;18.90;99.90;;;;;;5063647;28;20234;-85
2022/09/14 09:57:38;;;;;;;9.27;8.98;;;18.90;99.90;;;;;;5063003;28;20230;-85
2022/09/14 10:00:24;;;;;;;9.15;8.85;;;18.90;99.90;;;;;;5062916;28;20219;-86
2022/09/14 10:02:53;;;;;;;9.40;9.10;;;18.90;99.90;;;;;;5077123;28;20230;-85
2022/09/14 10:05:24;;;;;;;9.50;9.20;;;19.00;99.90;;;;;;5084877;28;20233;-84
2022/09/14 10:08:02;;;;;;;9.30;9.00;;;19.00;99.90;;;;;;5086189;28;20238;-82
2022/09/14 10:10:49;;;;;;;9.35;9.05;;;19.00;99.90;;;;;;5091999;28;20274;-83
2022/09/14 10:13:36;;;;;;;9.30;9.00;;;19.10;99.90;;;;;;5091230;28;20230;-83
2022/09/14 10:16:23;;;;;;;9.30;9.00;;;19.20;99.90;;;;;;5086384;28;20289;-83
2022/09/14 10:18:53;;;;;;;9.00;8.70;;;19.30;99.90;;;;;;5086214;28;20237;-81
2022/09/14 10:21:22;;;;;;;8.82;8.57;;;19.40;99.90;;;;;;5087625;28;20228;-86
2022/09/14 10:24:08;;;;;;;9.10;8.80;;;19.50;99.90;;;;;;5086683;28;20265;-82
2022/09/14 10:26:37;;;;;;;9.20;8.90;;;19.70;99.90;;;;;;5084314;28;20285;-83
2022/09/14 10:29:41;;;;;;;9.35;9.05;;;19.90;99.90;;;;;;5093681;28;20242;-83
2022/09/14 10:32:22;;;;;;;9.10;8.80;;;20.20;99.90;;;;;;5099466;27;20230;-82
2022/09/14 10:34:51;;;;;;;9.23;8.93;;;20.40;99.90;;;;;;5099747;28;20248;-82
2022/09/14 10:37:38;;;;;;;9.27;8.98;;;20.40;99.90;;;;;;5096593;28;20230;-81
2022/09/14 10:40:17;;;;;;;9.30;9.00;;;20.40;99.90;;;;;;5092508;28;20206;-83
2022/09/14 10:43:04;;;;;;;9.70;9.40;;;20.40;99.90;;;;;;5087451;28;20307;-83
2022/09/14 10:46:02;;;;;;;9.30;9.00;;;20.60;99.90;;;;;;5086630;28;20321;-83
2022/09/14 10:48:54;;;;;;;9.55;9.25;;;20.90;99.90;;;;;;5086197;28;20230;-83
2022/09/14 10:51:42;;;;;;;9.95;9.65;;;20.90;99.90;;;;;;5086113;28;20228;-83
2022/09/14 10:54:30;;;;;;;9.65;9.35;;;20.80;99.90;;;;;;5086877;28;20219;-83
2022/09/14 10:57:10;;;;;;;9.60;9.30;;;20.80;99.90;;;;;;5085169;28;20284;-84
2022/09/14 10:59:54;;;;;;;9.75;9.45;;;20.90;99.90;;;;;;5084090;28;20230;-84
2022/09/14 11:03:08;;;;;;;9.50;9.20;;;21.10;99.90;;;;;;5086073;28;20321;-83
2022/09/14 11:05:38;;;;;;;9.30;9.00;;;21.20;99.90;;;;;;5083482;28;20253;-83
2022/09/14 11:08:17;;;;;;;9.20;8.90;;;20.90;99.90;;;;;;5084547;28;20245;-83
2022/09/14 11:11:11;;;;;;;9.50;9.20;;;20.80;99.90;;;;;;5084945;28;20302;-82
2022/09/14 11:14:10;;;;;;;9.25;8.95;;;21.00;99.90;;;;;;5083666;28;20348;-83
2022/09/14 11:17:11;;;;;;;9.50;9.20;;;21.10;99.90;;;;;;5067829;28;20223;-85
2022/09/14 11:20:07;;;;;;;9.27;8.98;;;21.10;99.90;;;;;;5061735;28;20332;-84
2022/09/14 11:22:46;;;;;;;9.43;9.13;;;21.20;99.90;;;;;;5063360;28;20284;-84
2022/09/14 11:25:18;;;;;;;9.63;9.32;;;21.20;99.90;;;;;;5063101;28;20222;-84
2022/09/14 11:27:53;;;;;;;9.70;9.40;;;21.10;99.90;;;;;;5062304;28;20229;-83
2022/09/14 11:30:33;;;;;;;9.68;9.38;;;21.30;99.90;;;;;;5063610;28;20222;-82
2022/09/14 11:33:11;;;;;;;9.88;9.57;;;21.60;99.90;;;;;;5063732;28;20238;-84
2022/09/14 11:35:48;;;;;;;9.70;9.40;;;21.80;99.90;;;;;;5063446;28;20218;-83
2022/09/14 11:38:19;;;;;;;9.80;9.50;;;21.90;99.90;;;;;;5062967;28;20241;-84
2022/09/14 11:40:56;;;;;;;9.80;9.50;;;22.00;99.90;;;;;;5062034;28;20235;-83
2022/09/14 11:43:35;;;;;;;9.75;9.45;;;21.90;99.90;;;;;;5062897;28;20231;-85
2022/09/14 11:46:10;;;;;;;9.70;9.40;;;21.80;99.90;;;;;;5062141;28;20221;-83
2022/09/14 11:48:44;;;;;;;9.73;9.43;;;21.80;99.90;;;;;;5061808;28;20317;-82
2022/09/14 11:51:21;;;;;;;10.10;9.80;;;22.00;99.90;;;;;;5062062;28;20253;-82
2022/09/14 11:53:49;;;;;;;9.73;9.43;;;22.20;99.90;;;;;;5062238;28;20234;-80
2022/09/14 11:56:29;;;;;;;10.30;10.00;;;22.30;99.90;;;;;;5066301;28;20321;-81
2022/09/14 11:58:59;;;;;;;10.30;10.00;;;22.60;99.90;;;;;;5075835;28;20222;-81
2022/09/14 12:01:38;;;;;;;10.15;9.85;;;22.60;99.90;;;;;;5079909;28;20229;-81
2022/09/14 12:04:13;;;;;;;10.02;9.73;;;22.80;99.90;;;;;;5081654;28;20218;-81
2022/09/14 12:06:57;;;;;;;9.57;9.27;;;22.90;99.90;;;;;;5081091;28;20277;-81
2022/09/14 12:09:56;;;;;;;9.88;9.57;;;23.00;99.90;;;;;;5081414;28;20238;-81
2022/09/14 12:12:40;;;;;;;10.00;9.70;;;23.00;99.90;;;;;;5081014;28;20238;-81
2022/09/14 12:15:21;;;;;;;9.73;9.43;;;22.90;99.90;;;;;;5080438;28;20230;-81
2022/09/14 12:17:51;;;;;;;9.80;9.50;;;23.00;99.90;;;;;;5080791;28;20229;-81
2022/09/14 12:20:42;;;;;;;9.75;9.45;;;22.90;99.90;;;;;;5080078;28;20229;-81
2022/09/14 12:23:43;;;;;;;9.75;9.45;;;22.80;99.90;;;;;;5081258;28;20277;-81
2022/09/14 12:26:33;;;;;;;10.00;9.70;;;22.70;99.90;;;;;;5081122;28;20234;-83
2022/09/14 12:29:25;;;;;;;9.88;9.57;;;22.90;99.90;;;;;;5083090;28;20248;-81
2022/09/14 12:32:31;;;;;;;10.02;9.73;;;23.10;99.90;;;;;;5081035;28;20321;-82
2022/09/14 12:35:45;;;;;;;9.95;9.65;;;23.30;99.90;;;;;;5081803;28;20249;-81
2022/09/14 12:39:21;;;;;;;10.30;10.00;;;23.50;99.90;;;;;;5080489;28;20245;-81
2022/09/14 12:42:31;;;;;;;10.35;10.05;;;23.90;99.90;;;;;;5074000;28;20260;-81
2022/09/14 12:45:49;;;;;;;10.35;10.05;;;24.60;99.90;;;;;;5060365;28;20269;-81
2022/09/14 12:48:57;;;;;;;10.55;10.25;;;25.10;99.90;;;;;;5075503;28;20237;-82
2022/09/14 12:51:38;;;;;;;10.25;9.95;;;25.60;99.90;;;;;;5064903;28;20707;-80
2022/09/14 12:54:31;;;;;;;10.35;10.05;;;25.70;99.90;;;;;;5085676;28;20216;-82
2022/09/14 12:57:27;;;;;;;10.13;9.82;;;26.20;99.90;;;;;;5099070;27;20278;-82
2022/09/14 13:00:11;;;;;;;10.65;10.35;;;26.70;99.90;;;;;;5098597;27;20273;-80
2022/09/14 13:03:18;;;;;;;10.60;10.30;;;27.20;99.90;;;;;;5100613;27;20232;-82
2022/09/14 13:05:48;;;;;;;10.00;9.70;;;27.50;99.90;;;;;;5099860;27;20253;-79
2022/09/14 13:08:27;;;;;;;10.20;9.90;;;27.10;99.90;;;;;;5100651;27;20225;-78
2022/09/14 13:10:56;;;;;;;10.20;9.90;;;26.70;99.90;;;;;;5099599;27;20551;-80
2022/09/14 13:13:31;;;;;;;10.20;9.90;;;26.00;99.90;;;;;;5099778;27;20285;-76
2022/09/14 13:16:03;;;;;;;10.00;9.70;;;25.80;99.90;;;;;;5081175;27;20210;-82
2022/09/14 13:18:46;;;;;;;10.00;9.70;;;25.80;99.90;;;;;;5079019;27;20279;-78
2022/09/14 13:21:22;;;;;;;10.13;9.82;;;25.80;99.90;;;;;;5078883;27;20210;-81
2022/09/14 13:27:16;;;;;;;9.80;9.50;;;25.70;99.90;;;;;;5177456;27;20497;-77
2022/09/14 13:29:44;;;;;;;9.65;9.35;;;25.20;99.90;;;;;;5178124;27;20235;-77
2022/09/14 13:32:19;;;;;;;9.48;9.18;;;25.00;99.90;;;;;;5177490;27;20222;-79
2022/09/14 13:34:48;;;;;;;9.95;9.65;;;25.10;99.90;;;;;;5178349;27;20214;-78
2022/09/14 13:37:44;;;;;;;9.80;9.50;;;25.00;99.90;;;;;;5178333;27;20257;-83
2022/09/14 13:40:15;;;;;;;9.43;9.13;;;24.80;99.90;;;;;;5166609;27;20227;-83
2022/09/14 13:42:51;;;;;;;9.10;8.80;;;24.80;99.90;;;;;;5156761;27;20231;-86
2022/09/14 13:45:23;;;;;;;8.68;8.48;;;24.60;99.90;;;;;;5161519;27;20237;-83
2022/09/14 13:47:52;;;;;;;9.20;8.90;;;24.50;99.90;;;;;;5151290;27;20253;-84
2022/09/14 13:50:20;;;;;;;9.70;9.40;;;24.40;99.90;;;;;;5165845;27;20253;-81
2022/09/14 13:52:49;;;;;;;10.18;9.88;;;24.30;99.90;;;;;;5164673;27;20257;-84
2022/09/14 13:55:26;;;;;;;10.00;9.70;;;24.30;99.90;;;;;;5161600;27;20208;-83
2022/09/14 13:58:17;;;;;;;10.35;10.05;;;24.10;99.90;;;;;;5158512;27;20227;-82
2022/09/14 14:01:03;;;;;;;10.45;10.15;;;24.00;99.90;;;;;;5161134;27;20296;-81
2022/09/14 14:03:37;;;;;;;10.50;10.20;;;24.00;99.90;;;;;;5161558;27;20236;-79
2022/09/14 14:06:28;;;;;;;9.75;9.45;;;23.90;99.90;;;;;;5168799;27;20219;-81
2022/09/14 14:09:02;;;;;;;10.35;10.05;;;23.90;99.90;;;;;;5174032;27;20227;-81
2022/09/14 14:11:46;;;;;;;9.90;9.60;;;23.80;99.90;;;;;;5162971;27;20223;-85
2022/09/14 14:14:23;;;;;;;9.77;9.48;;;23.60;99.90;;;;;;5160788;27;20287;-83
2022/09/14 14:17:35;;;;;;;9.93;9.63;;;23.50;99.90;;;;;;5159605;27;20230;-83
2022/09/14 14:20:41;;;;;;;9.57;9.27;;;23.30;99.90;;;;;;5161475;27;20238;-83
2022/09/14 14:26:13;;;;;;;9.40;9.10;;;22.90;99.90;;;;;;5159163;27;20281;-83
2022/09/14 14:28:42;;;;;;;9.50;9.20;;;22.70;99.90;;;;;;5163706;27;20257;-82
2022/09/14 14:31:19;;;;;;;9.50;9.20;;;22.60;99.90;;;;;;5159908;27;20227;-80
2022/09/14 14:33:48;;;;;;;9.70;9.40;;;22.50;99.90;;;;;;5159433;27;20292;-81
2022/09/14 14:36:17;;;;;;;9.45;9.15;;;22.50;99.90;;;;;;5156641;27;20287;-81
2022/09/14 14:38:46;;;;;;;9.75;9.45;;;22.40;99.90;;;;;;5145276;27;20232;-81
2022/09/14 14:41:16;;;;;;;9.60;9.30;;;22.00;99.90;;;;;;5145040;27;20228;-81
2022/09/14 14:43:45;;;;;;;9.40;9.10;;;21.70;99.90;;;;;;5144809;27;20288;-81
2022/09/14 14:46:15;;;;;;;9.48;9.18;;;21.40;99.90;;;;;;5144046;27;20285;-81
2022/09/14 14:48:45;;;;;;;9.50;9.20;;;21.30;99.90;;;;;;5134105;27;20237;-81
2022/09/14 14:51:15;;;;;;;9.40;9.10;;;21.20;99.90;;;;;;5128673;27;20224;-81
2022/09/14 14:53:43;;;;;;;9.35;9.05;;;21.10;99.90;;;;;;5143586;27;20238;-81
2022/09/14 14:56:12;;;;;;;9.40;9.10;;;20.90;99.90;;;;;;5144295;27;20224;-81
2022/09/14 14:58:45;;;;;;;9.40;9.10;;;20.90;99.90;;;;;;5144712;27;20224;-81
2022/09/14 15:01:15;;;;;;;9.30;9.00;;;20.80;99.90;;;;;;5144635;27;20282;-81
2022/09/14 15:03:43;;;;;;;8.80;8.60;;;20.80;99.90;;;;;;5144259;27;20232;-86
2022/09/14 15:06:18;;;;;;;9.20;8.90;;;20.70;99.90;;;;;;5143810;27;20224;-81
2022/09/14 15:08:46;;;;;;;9.10;8.80;;;20.70;99.90;;;;;;5144242;27;20227;-80
2022/09/14 15:11:18;;;;;;;8.75;8.55;;;20.60;99.90;;;;;;5144242;27;20232;-81
2022/09/14 15:13:46;;;;;;;8.70;8.50;;;20.60;99.90;;;;;;5145709;27;20228;-82
2022/09/14 15:16:15;;;;;;;8.57;8.38;;;20.60;99.90;;;;;;5144209;27;20258;-82
2022/09/14 15:18:43;;;;;;;8.70;8.50;;;20.40;99.90;;;;;;5143907;27;20224;-79
2022/09/14 15:21:11;;;;;;;8.40;8.20;;;20.40;99.90;;;;;;5144140;27;20245;-80
2022/09/14 15:23:39;;;;;;;8.30;8.10;;;20.40;99.90;;;;;;5143536;27;20232;-80
2022/09/14 15:26:08;;;;;;;8.65;8.45;;;20.30;99.90;;;;;;5142269;27;20295;-81
2022/09/14 15:28:37;;;;;;;8.40;8.20;;;20.20;99.90;;;;;;5142924;27;20228;-82
2022/09/14 15:31:09;;;;;;;8.57;8.38;;;20.00;99.90;;;;;;5143164;27;20243;-82
2022/09/14 15:33:38;;;;;;;8.98;8.68;;;19.80;99.90;;;;;;5143529;27;20338;-81
2022/09/14 15:36:07;;;;;;;8.38;8.18;;;19.80;99.90;;;;;;5142986;27;20277;-81
2022/09/14 15:38:34;;;;;;;8.77;8.57;;;19.70;99.90;;;;;;5143516;27;20311;-81
2022/09/14 15:41:03;;;;;;;8.63;8.43;;;19.50;99.90;;;;;;5143375;27;20231;-80
2022/09/14 15:43:30;;;;;;;8.50;8.30;;;19.40;99.90;;;;;;5143639;27;20234;-80
2022/09/14 15:46:02;;;;;;;8.75;8.55;;;19.30;99.90;;;;;;5143115;27;20238;-81
2022/09/14 15:48:45;;;;;;;9.10;8.80;;;19.30;99.90;;;;;;5142382;27;20276;-80
2022/09/14 15:51:13;;;;;;;8.68;8.48;;;19.20;99.90;;;;;;5144371;27;20262;-80
2022/09/14 15:53:41;;;;;;;9.02;8.73;;;19.10;99.90;;;;;;5146302;27;20236;-79
2022/09/14 15:56:11;;;;;;;8.65;8.45;;;19.00;99.90;;;;;;5143794;27;20220;-80
2022/09/14 15:58:38;;;;;;;8.75;8.55;;;19.00;99.90;;;;;;5143933;27;20866;-81
2022/09/14 16:01:09;;;;;;;8.70;8.50;;;19.00;99.90;;;;;;5145236;27;20232;-81
2022/09/14 16:03:36;;;;;;;9.05;8.75;;;19.10;99.90;;;;;;5143996;27;20231;-80
2022/09/14 16:06:07;;;;;;;8.88;8.65;;;19.20;99.90;;;;;;5143354;27;20234;-81
2022/09/14 16:08:36;;;;;;;8.85;8.60;;;19.20;99.90;;;;;;5143249;27;20220;-81
2022/09/14 16:11:06;;;;;;;8.90;8.60;;;19.20;99.90;;;;;;5143018;27;20238;-79
2022/09/14 16:13:34;;;;;;;9.00;8.70;;;19.20;99.90;;;;;;5142822;27;20311;-80
2022/09/14 16:16:09;;;;;;;9.00;8.70;;;19.20;99.90;;;;;;5142558;27;20342;-81
2022/09/14 16:18:38;;;;;;;9.25;8.95;;;19.20;99.90;;;;;;5142262;27;20231;-83
2022/09/14 16:21:10;;;;;;;9.20;8.90;;;19.30;99.90;;;;;;5143446;27;20326;-80
2022/09/14 16:23:41;;;;;;;9.32;9.02;;;19.40;99.90;;;;;;5143194;27;20281;-81
2022/09/14 16:26:10;;;;;;;9.10;8.80;;;19.40;99.90;;;;;;5141288;27;20308;-81
2022/09/14 16:28:40;;;;;;;8.40;8.20;;;19.40;99.90;;;;;;5143790;27;20231;-82
2022/09/14 16:31:11;;;;;;;8.35;8.15;;;19.40;99.90;;;;;;5144316;27;20228;-81
2022/09/14 16:33:44;;;;;;;8.30;8.10;;;19.40;99.90;;;;;;5142993;27;20259;-81
2022/09/14 16:36:19;;;;;;;8.50;8.30;;;19.30;99.90;;;;;;5142899;27;20220;-82
2022/09/14 16:38:46;;;;;;;9.00;8.70;;;19.30;99.90;;;;;;5141830;27;20231;-81
2022/09/14 16:41:15;;;;;;;8.95;8.68;;;19.30;99.90;;;;;;5153611;27;20231;-81
2022/09/14 16:43:42;;;;;;;8.73;8.50;;;19.30;99.90;;;;;;5149619;27;20250;-80
2022/09/14 16:46:13;;;;;;;8.88;8.57;;;19.20;99.90;;;;;;5147849;27;20234;-81
2022/09/14 16:48:44;;;;;;;8.50;8.30;;;19.20;99.90;;;;;;5148766;27;20238;-81
2022/09/14 16:51:19;;;;;;;8.70;8.50;;;19.20;99.90;;;;;;5145734;27;20232;-81
2022/09/14 16:53:48;;;;;;;8.70;8.50;;;19.10;99.90;;;;;;5142983;27;20238;-81
2022/09/14 16:56:19;;;;;;;8.68;8.48;;;19.00;99.90;;;;;;5142375;27;20315;-80
2022/09/14 16:58:48;;;;;;;8.80;8.60;;;19.00;99.90;;;;;;5143059;27;20254;-81
2022/09/14 17:01:19;;;;;;;8.55;8.35;;;18.90;99.90;;;;;;5120655;27;20293;-80
2022/09/14 17:03:49;;;;;;;8.73;8.52;;;18.80;99.90;;;;;;5121613;27;20224;-80
2022/09/14 17:06:22;;;;;;;8.68;8.48;;;18.80;99.90;;;;;;5121644;27;20255;-80
2022/09/14 17:08:51;;;;;;;8.40;8.20;;;18.70;99.90;;;;;;5120603;27;20236;-79
2022/09/14 17:11:19;;;;;;;8.63;8.43;;;18.70;99.90;;;;;;5120027;27;20320;-79
2022/09/14 17:13:47;;;;;;;8.70;8.50;;;18.70;99.90;;;;;;5119957;27;20233;-80
2022/09/14 17:16:18;;;;;;;8.60;8.40;;;18.60;99.90;;;;;;5118912;27;20324;-80
2022/09/14 17:18:48;;;;;;;8.07;7.88;;;18.60;99.90;;;;;;5119479;27;20229;-80
2022/09/14 17:21:20;;;;;;;8.18;7.97;;;18.60;99.90;;;;;;5119817;27;20242;-80
2022/09/14 17:23:48;;;;;;;8.40;8.20;;;18.60;99.90;;;;;;5119949;27;20239;-80
2022/09/14 17:26:19;;;;;;;8.48;8.27;;;18.50;99.90;;;;;;5118748;27;20241;-81
2022/09/14 17:28:48;;;;;;;8.35;8.15;;;18.50;99.90;;;;;;5120293;27;20235;-80
2022/09/14 17:31:37;;;;;;;8.30;8.10;;;18.50;99.90;;;;;;5119742;27;20235;-80
2022/09/14 17:34:08;;;;;;;8.23;8.02;;;18.60;99.90;;;;;;5119899;27;20224;-80
2022/09/14 17:36:38;;;;;;;8.50;8.30;;;18.60;99.90;;;;;;5120332;27;20467;-82
2022/09/14 17:39:08;;;;;;;8.60;8.40;;;18.50;99.90;;;;;;5121517;27;20256;-82